Time;durP1;ratioP1;P1;durP2;ratioP2;P2;SDS_P1;SDS_P2;PMS_P1;PMS_P2;Temp;Humidity;BMP_temperature;BMP_pressure;BME280_temperature;BME280_humidity;BME280_pressure;Samples;Min_cycle;Max_cycle;Signal;HPM_P1;HPM_P2
2021/03/14 00:00:39;;;;;;;3.97;1.00;;;4.70;99.90;;;;;;4979411;28;20445;-84
2021/03/14 00:03:09;;;;;;;3.30;1.33;;;4.70;99.90;;;;;;4985817;28;20453;-88
2021/03/14 00:05:40;;;;;;;1.70;0.40;;;4.80;99.90;;;;;;4978402;28;20549;-83
2021/03/14 00:08:07;;;;;;;1.53;0.63;;;4.80;99.90;;;;;;5014449;28;20417;-84
2021/03/14 00:10:33;;;;;;;2.20;0.63;;;4.70;99.90;;;;;;5011208;28;20493;-84
2021/03/14 00:12:59;;;;;;;3.57;1.07;;;4.70;99.90;;;;;;4988312;28;20432;-84
2021/03/14 00:15:25;;;;;;;1.27;0.23;;;4.70;99.90;;;;;;5012889;28;20182;-83
2021/03/14 00:17:51;;;;;;;0.83;0.40;;;4.70;99.90;;;;;;4999300;28;20437;-80
2021/03/14 00:20:17;;;;;;;0.80;0.30;;;4.50;99.90;;;;;;4994283;28;20245;-84
2021/03/14 00:22:44;;;;;;;0.60;0.33;;;4.60;99.90;;;;;;4999920;28;20418;-89
2021/03/14 00:25:10;;;;;;;1.73;0.30;;;4.60;99.90;;;;;;4996899;28;20483;-86
2021/03/14 00:27:36;;;;;;;0.80;0.50;;;4.60;99.90;;;;;;5007184;28;20434;-89
2021/03/14 00:30:07;;;;;;;2.20;0.67;;;4.70;99.90;;;;;;4996899;28;20568;-88
2021/03/14 00:32:33;;;;;;;2.30;0.60;;;4.70;99.90;;;;;;5003746;28;20498;-88
2021/03/14 00:34:59;;;;;;;5.60;0.80;;;4.70;99.90;;;;;;4992842;28;20470;-83
2021/03/14 00:37:25;;;;;;;1.87;0.87;;;4.70;99.90;;;;;;4987150;28;20221;-84
2021/03/14 00:39:54;;;;;;;1.33;0.60;;;4.80;99.90;;;;;;4993587;28;20179;-85
2021/03/14 00:42:19;;;;;;;2.83;1.13;;;4.80;99.90;;;;;;5002148;28;20186;-89
2021/03/14 00:44:45;;;;;;;7.63;1.00;;;4.80;99.90;;;;;;4993766;28;20908;-89
2021/03/14 00:47:11;;;;;;;4.80;0.77;;;4.80;99.90;;;;;;5003740;28;20274;-82
2021/03/14 00:49:37;;;;;;;2.93;0.80;;;4.90;99.90;;;;;;4994539;28;20704;-83
2021/03/14 00:52:02;;;;;;;6.20;2.30;;;5.00;99.90;;;;;;4985687;28;20556;-81
2021/03/14 00:54:28;;;;;;;4.57;1.03;;;4.90;99.90;;;;;;4978456;28;20884;-81
2021/03/14 00:56:54;;;;;;;1.60;0.30;;;4.90;99.90;;;;;;4992032;28;20552;-81
2021/03/14 00:59:20;;;;;;;2.83;0.63;;;5.00;99.90;;;;;;4991768;28;20194;-85
2021/03/14 01:01:48;;;;;;;6.90;1.30;;;4.90;99.90;;;;;;4988471;28;20453;-82
2021/03/14 01:04:14;;;;;;;2.10;0.53;;;5.00;99.90;;;;;;4979475;28;20179;-81
2021/03/14 01:06:45;;;;;;;2.87;0.60;;;5.00;99.90;;;;;;4991830;28;20438;-83
2021/03/14 01:09:11;;;;;;;3.50;1.13;;;5.00;99.90;;;;;;5008463;28;20210;-83
2021/03/14 01:11:39;;;;;;;2.07;0.60;;;5.00;99.90;;;;;;5002887;28;20454;-82
2021/03/14 01:14:06;;;;;;;0.90;0.63;;;5.10;99.90;;;;;;4989463;28;20696;-85
2021/03/14 01:16:32;;;;;;;1.43;1.03;;;5.00;99.90;;;;;;4990345;28;20549;-82
2021/03/14 01:18:57;;;;;;;2.63;0.97;;;5.00;99.90;;;;;;4988473;28;20807;-81
2021/03/14 01:21:24;;;;;;;2.00;0.50;;;5.00;99.90;;;;;;4987581;28;20233;-85
2021/03/14 01:23:50;;;;;;;1.73;0.90;;;5.00;99.90;;;;;;5000796;28;20175;-85
2021/03/14 01:26:15;;;;;;;1.17;0.43;;;5.00;99.90;;;;;;4978570;28;20826;-83
2021/03/14 01:28:45;;;;;;;2.63;0.20;;;5.00;99.90;;;;;;5003932;28;20186;-84
2021/03/14 01:31:14;;;;;;;3.73;0.93;;;5.00;99.90;;;;;;4988350;28;20219;-80
2021/03/14 01:33:39;;;;;;;1.70;0.27;;;4.90;99.90;;;;;;4980655;28;20572;-82
2021/03/14 01:36:07;;;;;;;6.50;0.60;;;4.90;99.90;;;;;;4963366;28;20480;-83
2021/03/14 01:38:33;;;;;;;4.10;0.83;;;4.80;99.90;;;;;;4975468;28;20655;-81
2021/03/14 01:40:59;;;;;;;2.20;0.57;;;4.80;99.90;;;;;;4975036;28;20449;-82
2021/03/14 01:43:25;;;;;;;2.47;0.73;;;4.80;99.90;;;;;;4975459;28;20458;-82
2021/03/14 01:45:50;;;;;;;1.80;0.30;;;4.80;99.90;;;;;;4974841;28;20808;-81
2021/03/14 01:48:26;;;;;;;1.53;0.60;;;4.80;99.90;;;;;;4992437;28;20230;-81
2021/03/14 01:50:52;;;;;;;0.93;0.40;;;4.80;99.90;;;;;;4992156;28;20309;-81
2021/03/14 01:53:38;;;;;;;1.43;0.60;;;4.80;99.90;;;;;;4992654;28;20431;-82
2021/03/14 01:56:04;;;;;;;1.90;0.40;;;4.80;99.90;;;;;;4974213;28;20880;-84
2021/03/14 01:58:31;;;;;;;1.53;0.60;;;4.80;99.90;;;;;;4990760;28;20427;-80
2021/03/14 02:00:57;;;;;;;0.93;0.30;;;4.80;99.90;;;;;;4974839;28;20438;-82
2021/03/14 02:03:23;;;;;;;1.87;0.67;;;4.80;99.90;;;;;;4974615;28;20442;-82
2021/03/14 02:05:52;;;;;;;2.77;0.60;;;4.80;99.90;;;;;;4992373;28;20657;-88
2021/03/14 02:08:19;;;;;;;2.93;0.70;;;4.80;99.90;;;;;;4975713;28;20484;-82
2021/03/14 02:10:48;;;;;;;3.03;1.03;;;4.70;99.90;;;;;;4975263;28;20473;-80
2021/03/14 02:13:18;;;;;;;0.87;0.80;;;4.80;99.90;;;;;;4972691;28;20443;-83
2021/03/14 02:15:48;;;;;;;1.23;0.50;;;4.80;99.90;;;;;;4975775;28;20951;-81
2021/03/14 02:18:15;;;;;;;1.40;0.50;;;4.80;99.90;;;;;;4988305;28;20449;-82
2021/03/14 02:20:42;;;;;;;5.70;0.70;;;4.80;99.90;;;;;;4991959;28;20445;-81
2021/03/14 02:23:17;;;;;;;6.57;1.10;;;4.80;99.90;;;;;;4974891;28;20935;-80
2021/03/14 02:25:52;;;;;;;3.27;1.13;;;4.80;99.90;;;;;;4974633;28;20446;-81
2021/03/14 02:28:19;;;;;;;6.97;1.40;;;4.90;99.90;;;;;;4988898;28;20421;-83
2021/03/14 02:30:46;;;;;;;5.43;1.27;;;4.90;99.90;;;;;;4991154;28;20504;-82
2021/03/14 02:33:19;;;;;;;4.73;0.80;;;4.90;99.90;;;;;;4994009;28;20830;-80
2021/03/14 02:35:46;;;;;;;6.33;1.53;;;4.90;99.90;;;;;;4991532;28;20454;-81
2021/03/14 02:38:13;;;;;;;4.70;1.03;;;4.90;99.90;;;;;;4989829;28;20953;-80
2021/03/14 02:40:39;;;;;;;4.30;1.53;;;4.90;99.90;;;;;;4992075;28;20468;-81
2021/03/14 02:43:06;;;;;;;2.50;1.20;;;4.90;99.90;;;;;;5001704;28;20435;-81
2021/03/14 02:45:32;;;;;;;4.33;1.70;;;5.00;99.90;;;;;;4990584;28;20485;-86
2021/03/14 02:47:58;;;;;;;6.83;1.37;;;5.00;99.90;;;;;;5001441;28;20434;-84
2021/03/14 02:50:25;;;;;;;5.97;1.50;;;5.00;99.90;;;;;;4975397;28;20471;-86
2021/03/14 02:52:52;;;;;;;6.53;2.13;;;5.10;99.90;;;;;;4985886;28;20509;-87
2021/03/14 02:55:22;;;;;;;10.87;2.13;;;5.10;99.90;;;;;;4975476;28;20510;-83
2021/03/14 02:57:49;;;;;;;8.57;3.00;;;5.20;99.90;;;;;;4980611;28;20430;-84
2021/03/14 03:00:19;;;;;;;2.90;1.33;;;5.20;99.90;;;;;;5011605;28;20421;-87
2021/03/14 03:02:56;;;;;;;5.97;1.50;;;5.20;99.90;;;;;;5004785;28;20823;-88
2021/03/14 03:05:23;;;;;;;10.07;2.03;;;5.30;99.90;;;;;;4976101;28;20943;-89
2021/03/14 03:07:54;;;;;;;7.50;2.03;;;5.30;99.90;;;;;;4998869;28;20868;-84
2021/03/14 03:10:21;;;;;;;8.60;2.70;;;5.30;99.90;;;;;;4980302;28;20473;-85
2021/03/14 03:12:51;;;;;;;3.80;1.40;;;5.30;99.90;;;;;;5005666;28;20426;-90
2021/03/14 03:15:18;;;;;;;8.67;2.57;;;5.30;99.90;;;;;;4997263;28;20410;-89
2021/03/14 03:17:45;;;;;;;10.27;1.50;;;5.30;99.90;;;;;;5010786;28;20444;-87
2021/03/14 03:20:12;;;;;;;4.33;1.00;;;5.30;99.90;;;;;;5015275;28;20432;-91
2021/03/14 03:22:41;;;;;;;3.87;1.57;;;5.30;99.90;;;;;;4999371;28;20418;-84
2021/03/14 03:25:07;;;;;;;4.60;1.40;;;5.20;99.90;;;;;;4998253;28;20426;-88
2021/03/14 03:27:34;;;;;;;6.93;1.70;;;5.20;99.90;;;;;;4997903;28;20421;-84
2021/03/14 03:30:03;;;;;;;5.17;1.27;;;5.20;99.90;;;;;;4997856;28;20473;-90
2021/03/14 03:32:29;;;;;;;7.13;1.47;;;5.30;99.90;;;;;;4998360;28;20487;-91
2021/03/14 03:34:54;;;;;;;10.03;1.90;;;5.20;99.90;;;;;;5016360;28;20438;-91
2021/03/14 03:37:20;;;;;;;2.00;1.00;;;5.20;99.90;;;;;;4998837;28;20186;-92
2021/03/14 03:39:48;;;;;;;5.90;2.40;;;5.30;99.90;;;;;;5015943;28;20186;-90
2021/03/14 03:42:19;;;;;;;8.93;1.90;;;5.20;99.90;;;;;;5015619;28;20494;-89
2021/03/14 03:44:45;;;;;;;6.90;1.30;;;5.20;99.90;;;;;;4997835;28;20831;-82
2021/03/14 03:47:13;;;;;;;6.20;1.90;;;5.20;99.90;;;;;;5015519;28;20821;-90
2021/03/14 03:49:42;;;;;;;5.37;1.70;;;5.30;99.90;;;;;;4998029;28;20460;-88
2021/03/14 03:52:13;;;;;;;2.93;1.47;;;5.30;99.90;;;;;;5014411;28;20438;-91
2021/03/14 03:54:39;;;;;;;10.43;2.13;;;5.30;99.90;;;;;;5015012;28;20460;-83
2021/03/14 03:57:06;;;;;;;6.43;1.80;;;5.30;99.90;;;;;;5015061;28;20421;-83
2021/03/14 03:59:33;;;;;;;7.43;1.93;;;5.30;99.90;;;;;;5014820;28;20414;-86
2021/03/14 04:01:59;;;;;;;5.80;1.80;;;5.30;99.90;;;;;;4997463;28;20436;-85
2021/03/14 04:04:26;;;;;;;7.53;2.27;;;5.40;99.90;;;;;;5014391;28;20452;-84
2021/03/14 04:06:55;;;;;;;4.43;1.40;;;5.40;99.90;;;;;;4997436;28;20437;-83
2021/03/14 04:09:23;;;;;;;4.07;1.60;;;5.50;99.90;;;;;;4997820;28;20426;-84
2021/03/14 04:11:55;;;;;;;8.83;1.40;;;5.40;99.90;;;;;;5015370;28;20513;-91
2021/03/14 04:14:22;;;;;;;3.80;1.50;;;5.50;99.90;;;;;;4997619;28;20418;-89
2021/03/14 04:16:49;;;;;;;6.47;1.63;;;5.50;99.90;;;;;;4998103;28;20533;-87
2021/03/14 04:19:18;;;;;;;3.23;1.00;;;5.50;99.90;;;;;;4998049;28;20465;-88
2021/03/14 04:21:46;;;;;;;3.93;0.80;;;5.50;99.90;;;;;;4997745;28;20938;-87
2021/03/14 04:24:13;;;;;;;2.60;0.83;;;5.50;99.90;;;;;;5015220;28;20414;-87
2021/03/14 04:26:45;;;;;;;4.40;2.07;;;5.60;99.90;;;;;;4997300;28;20802;-91
2021/03/14 04:29:12;;;;;;;4.03;1.63;;;5.50;99.90;;;;;;4997277;28;20414;-89
2021/03/14 04:31:42;;;;;;;4.27;1.10;;;5.50;99.90;;;;;;5014148;28;20440;-87
2021/03/14 04:34:10;;;;;;;3.83;1.10;;;5.50;99.90;;;;;;5014340;28;20462;-86
2021/03/14 04:36:40;;;;;;;5.40;1.03;;;5.60;99.90;;;;;;4997144;28;20425;-87
2021/03/14 04:39:06;;;;;;;3.30;1.23;;;5.60;99.90;;;;;;4997054;28;20504;-87
2021/03/14 04:41:34;;;;;;;4.90;1.40;;;5.70;99.90;;;;;;5014841;28;20985;-90
2021/03/14 04:44:03;;;;;;;9.60;1.70;;;5.70;99.90;;;;;;4997050;28;20424;-87
2021/03/14 04:46:29;;;;;;;4.07;1.67;;;5.80;99.90;;;;;;4997050;28;20489;-88
2021/03/14 04:48:59;;;;;;;9.80;1.87;;;5.80;99.90;;;;;;4996854;28;20414;-88
2021/03/14 04:51:28;;;;;;;6.13;1.47;;;5.90;99.90;;;;;;4996947;28;20473;-89
2021/03/14 04:53:56;;;;;;;7.20;1.90;;;5.90;99.90;;;;;;4980761;28;20960;-87
2021/03/14 04:56:24;;;;;;;8.23;1.87;;;5.90;99.90;;;;;;4996787;28;20430;-87
2021/03/14 04:58:51;;;;;;;8.00;2.00;;;5.90;99.90;;;;;;5014423;28;20403;-89
2021/03/14 05:01:19;;;;;;;8.47;1.37;;;5.90;99.90;;;;;;5014122;28;20444;-88
2021/03/14 05:03:48;;;;;;;5.00;1.53;;;5.80;99.90;;;;;;5014606;28;20410;-90
2021/03/14 05:06:19;;;;;;;5.40;1.70;;;5.80;99.90;;;;;;4997030;28;20456;-89
2021/03/14 05:08:50;;;;;;;3.30;1.53;;;5.90;99.90;;;;;;4996542;28;20520;-85
2021/03/14 05:11:20;;;;;;;2.90;1.40;;;5.90;99.90;;;;;;5017168;28;20519;-88
2021/03/14 05:13:46;;;;;;;8.50;2.23;;;5.90;99.90;;;;;;5000373;28;20426;-83
2021/03/14 05:16:18;;;;;;;12.20;3.77;;;5.80;99.90;;;;;;5015192;28;20420;-84
2021/03/14 05:18:46;;;;;;;7.90;2.50;;;5.80;99.90;;;;;;4998065;28;20464;-83
2021/03/14 05:21:15;;;;;;;9.83;1.30;;;5.80;99.90;;;;;;4997858;28;20437;-84
2021/03/14 05:23:41;;;;;;;5.33;1.17;;;5.90;99.90;;;;;;4997205;28;20428;-84
2021/03/14 05:26:12;;;;;;;8.00;1.57;;;5.80;99.90;;;;;;4995651;28;20454;-83
2021/03/14 05:28:40;;;;;;;4.53;1.47;;;5.90;99.90;;;;;;4994997;28;20454;-84
2021/03/14 05:31:37;;;;;;;1.90;1.17;;;5.90;99.90;;;;;;4995245;28;20539;-83
2021/03/14 05:34:12;;;;;;;2.93;0.97;;;5.90;99.90;;;;;;5012909;28;20535;-83
2021/03/14 05:36:39;;;;;;;6.13;1.30;;;5.90;99.90;;;;;;4995012;28;20417;-84
2021/03/14 05:39:06;;;;;;;5.87;2.20;;;5.90;99.90;;;;;;5012984;28;20426;-89
2021/03/14 05:41:34;;;;;;;3.20;1.17;;;5.90;99.90;;;;;;4994595;28;20422;-85
2021/03/14 05:44:01;;;;;;;7.40;1.77;;;5.90;99.90;;;;;;4995088;28;20460;-85
2021/03/14 05:46:28;;;;;;;5.13;1.03;;;5.90;99.90;;;;;;4995551;28;20966;-84
2021/03/14 05:48:54;;;;;;;5.47;1.00;;;6.00;99.90;;;;;;5012672;28;20513;-83
2021/03/14 05:51:29;;;;;;;5.80;0.80;;;6.00;99.90;;;;;;5012418;28;20564;-87
2021/03/14 05:54:11;;;;;;;3.97;1.77;;;6.00;99.90;;;;;;5013389;28;20177;-89
2021/03/14 05:56:44;;;;;;;7.53;1.73;;;6.00;99.90;;;;;;4995053;28;20948;-86
2021/03/14 05:59:13;;;;;;;7.43;1.43;;;6.00;99.90;;;;;;4979233;28;20429;-86
2021/03/14 06:01:44;;;;;;;3.03;1.50;;;6.10;99.90;;;;;;4995302;28;20444;-88
2021/03/14 06:04:10;;;;;;;5.77;1.50;;;6.10;99.90;;;;;;4995520;28;20406;-89
2021/03/14 06:06:37;;;;;;;8.20;2.37;;;6.10;99.90;;;;;;5013029;28;20425;-88
2021/03/14 06:09:05;;;;;;;3.40;1.60;;;6.20;99.90;;;;;;4994719;28;20425;-88
2021/03/14 06:11:31;;;;;;;8.53;2.50;;;6.20;99.90;;;;;;4995322;28;20476;-87
2021/03/14 06:13:59;;;;;;;4.03;1.37;;;6.20;99.90;;;;;;4995286;28;20493;-89
2021/03/14 06:16:25;;;;;;;6.20;1.70;;;6.20;99.90;;;;;;4995324;28;20426;-90
2021/03/14 06:18:52;;;;;;;10.03;1.23;;;6.20;99.90;;;;;;4994909;28;20910;-87
2021/03/14 06:21:29;;;;;;;4.00;0.83;;;6.20;99.90;;;;;;5012887;28;20456;-87
2021/03/14 06:24:11;;;;;;;8.13;1.97;;;6.20;99.90;;;;;;4995528;28;20429;-88
2021/03/14 06:26:48;;;;;;;6.30;1.40;;;6.30;99.90;;;;;;4995256;28;20421;-88
2021/03/14 06:29:17;;;;;;;8.87;1.07;;;6.30;99.90;;;;;;4994801;28;20421;-87
2021/03/14 06:31:54;;;;;;;9.80;2.57;;;6.30;99.90;;;;;;4995306;28;20457;-88
2021/03/14 06:34:31;;;;;;;7.20;1.60;;;6.20;99.90;;;;;;5012276;28;20461;-90
2021/03/14 06:37:06;;;;;;;4.13;1.30;;;6.20;99.90;;;;;;5012855;28;20416;-85
2021/03/14 06:39:34;;;;;;;6.07;2.50;;;6.30;99.90;;;;;;4996462;28;20410;-87
2021/03/14 06:42:00;;;;;;;8.53;1.40;;;6.30;99.90;;;;;;4995452;28;20434;-88
2021/03/14 06:44:33;;;;;;;7.23;1.77;;;6.30;99.90;;;;;;5015071;28;20418;-92
2021/03/14 06:47:00;;;;;;;13.67;1.93;;;6.20;99.90;;;;;;5019091;28;20509;-92
2021/03/14 06:49:28;;;;;;;18.00;2.93;;;6.40;99.90;;;;;;5001517;28;20429;-90
2021/03/14 06:51:59;;;;;;;8.77;2.13;;;6.40;99.90;;;;;;4999384;28;20439;-90
2021/03/14 06:54:48;;;;;;;8.90;2.00;;;6.40;99.90;;;;;;4983355;28;20421;-89
2021/03/14 06:57:20;;;;;;;7.53;2.40;;;6.50;99.90;;;;;;4999579;28;21199;-84
2021/03/14 06:59:50;;;;;;;5.90;2.10;;;6.50;99.90;;;;;;4998369;28;20441;-86
2021/03/14 07:02:24;;;;;;;10.07;2.67;;;6.50;99.90;;;;;;5016623;28;20489;-90
2021/03/14 07:05:07;;;;;;;11.20;2.10;;;6.60;99.90;;;;;;4999407;28;20508;-91
2021/03/14 07:07:41;;;;;;;7.73;1.67;;;6.60;99.90;;;;;;4998757;28;20425;-90
2021/03/14 07:10:08;;;;;;;6.27;2.40;;;6.60;99.90;;;;;;4985403;28;20477;-91
2021/03/14 07:12:38;;;;;;;8.63;2.10;;;6.70;99.90;;;;;;4996539;28;20481;-89
2021/03/14 07:15:23;;;;;;;6.47;1.97;;;6.70;99.90;;;;;;4995633;28;20940;-89
2021/03/14 07:17:54;;;;;;;9.33;2.10;;;6.70;99.90;;;;;;4979539;28;20418;-89
2021/03/14 07:20:21;;;;;;;12.83;1.90;;;6.80;99.90;;;;;;4986816;28;20502;-85
2021/03/14 07:22:57;;;;;;;6.97;2.10;;;6.70;99.90;;;;;;4980176;28;20523;-86
2021/03/14 07:25:24;;;;;;;5.33;1.87;;;6.70;99.90;;;;;;4979323;28;20772;-88
2021/03/14 07:27:51;;;;;;;11.13;3.13;;;6.70;99.90;;;;;;4979078;28;20446;-89
2021/03/14 07:30:19;;;;;;;3.30;0.90;;;6.60;99.90;;;;;;4979123;28;20561;-88
2021/03/14 07:32:46;;;;;;;4.73;1.07;;;6.60;99.90;;;;;;4976788;28;20420;-86
2021/03/14 07:35:12;;;;;;;11.63;2.97;;;6.70;99.90;;;;;;4978104;28;20467;-84
2021/03/14 07:37:44;;;;;;;5.80;2.00;;;6.70;99.90;;;;;;4977998;28;20863;-87
2021/03/14 07:40:15;;;;;;;4.47;0.63;;;6.90;99.90;;;;;;4978324;28;20423;-86
2021/03/14 07:42:43;;;;;;;2.77;1.60;;;7.10;99.90;;;;;;4978176;28;20430;-88
2021/03/14 07:45:11;;;;;;;7.27;1.37;;;7.10;99.90;;;;;;4977983;28;20907;-87
2021/03/14 07:47:39;;;;;;;7.47;2.37;;;7.20;99.90;;;;;;4995224;28;20513;-86
2021/03/14 07:50:12;;;;;;;7.20;2.17;;;7.20;99.90;;;;;;4978034;28;20478;-89
2021/03/14 07:52:40;;;;;;;7.67;1.60;;;7.10;99.90;;;;;;4994384;28;20427;-87
2021/03/14 07:55:13;;;;;;;8.20;1.00;;;7.10;99.90;;;;;;4977165;28;20430;-83
2021/03/14 07:57:43;;;;;;;6.90;2.37;;;7.10;99.90;;;;;;4977852;28;20774;-88
2021/03/14 08:00:37;;;;;;;8.67;1.33;;;7.00;99.90;;;;;;4978444;28;20458;-87
2021/03/14 08:03:08;;;;;;;7.47;2.17;;;6.90;99.90;;;;;;4995531;28;20411;-89
2021/03/14 08:05:43;;;;;;;8.73;1.97;;;6.90;99.90;;;;;;4995524;28;20473;-85
2021/03/14 08:08:33;;;;;;;2.80;0.90;;;6.90;99.90;;;;;;4995893;28;20407;-89
2021/03/14 08:11:01;;;;;;;8.13;1.83;;;6.90;99.90;;;;;;4993937;28;20506;-87
2021/03/14 08:13:29;;;;;;;8.37;1.47;;;6.90;99.90;;;;;;4995127;28;20422;-86
2021/03/14 08:16:05;;;;;;;3.40;1.70;;;7.10;99.90;;;;;;4995030;28;20430;-87
2021/03/14 08:18:41;;;;;;;8.10;2.00;;;7.20;99.90;;;;;;4995291;28;20418;-85
2021/03/14 08:21:19;;;;;;;5.40;2.00;;;7.50;99.90;;;;;;4977910;28;20434;-89
2021/03/14 08:23:47;;;;;;;5.00;1.70;;;7.80;99.90;;;;;;4995451;28;20414;-87
2021/03/14 08:26:19;;;;;;;8.77;2.40;;;8.00;99.90;;;;;;4977787;28;20443;-86
2021/03/14 08:29:02;;;;;;;14.90;3.13;;;8.10;99.90;;;;;;5001739;28;20413;-86
2021/03/14 08:31:50;;;;;;;11.40;3.10;;;8.10;99.90;;;;;;4978213;28;20544;-86
2021/03/14 08:34:26;;;;;;;13.13;3.40;;;8.20;99.90;;;;;;4994709;28;20813;-83
2021/03/14 08:36:53;;;;;;;8.90;2.37;;;8.30;99.90;;;;;;4994560;28;20407;-88
2021/03/14 08:39:23;;;;;;;11.40;2.40;;;8.30;99.90;;;;;;4976852;28;20422;-88
2021/03/14 08:42:05;;;;;;;6.10;1.43;;;8.40;99.90;;;;;;4977110;28;20501;-87
2021/03/14 08:44:33;;;;;;;10.80;2.90;;;8.40;99.90;;;;;;4977776;28;20470;-91
2021/03/14 08:47:16;;;;;;;8.70;1.93;;;8.40;99.90;;;;;;4993486;28;20442;-85
2021/03/14 08:49:45;;;;;;;8.50;2.13;;;8.40;98.10;;;;;;4994216;28;21057;-84
2021/03/14 08:52:15;;;;;;;5.67;2.60;;;8.40;94.90;;;;;;4994710;28;20459;-82
2021/03/14 08:54:48;;;;;;;7.63;1.67;;;8.40;97.30;;;;;;4978675;28;20437;-85
2021/03/14 08:57:16;;;;;;;6.73;2.97;;;8.60;99.90;;;;;;4975001;28;20938;-83
2021/03/14 08:59:46;;;;;;;8.17;1.53;;;8.70;85.50;;;;;;4976539;28;20422;-86
2021/03/14 09:02:19;;;;;;;7.13;1.20;;;;;;;;;;4976758;28;20823;-85
2021/03/14 09:04:48;;;;;;;6.27;1.80;;;;;;;;;;4976906;28;20490;-89
2021/03/14 09:07:14;;;;;;;8.07;2.00;;;9.60;28.10;;;;;;4994214;28;20510;-86
2021/03/14 09:09:41;;;;;;;13.40;1.77;;;;;;;;;;4992752;28;20868;-85
2021/03/14 09:12:13;;;;;;;5.80;0.97;;;10.50;1.00;;;;;;4984128;28;20442;-85
2021/03/14 09:14:48;;;;;;;6.77;1.27;;;10.70;1.00;;;;;;4979228;28;20425;-85
2021/03/14 09:17:16;;;;;;;3.13;0.77;;;11.90;1.00;;;;;;4976342;28;20437;-85
2021/03/14 09:19:52;;;;;;;5.13;1.40;;;12.70;99.90;;;;;;4993740;28;20434;-87
2021/03/14 09:22:24;;;;;;;5.00;0.60;;;12.70;99.90;;;;;;4992408;28;20440;-86
2021/03/14 09:24:54;;;;;;;4.60;1.40;;;12.20;99.90;;;;;;4992543;28;21000;-87
2021/03/14 09:27:41;;;;;;;2.40;0.30;;;11.60;1.00;;;;;;4976206;28;21002;-85
2021/03/14 09:30:18;;;;;;;3.70;0.90;;;11.00;1.00;;;;;;4992638;28;20468;-87
2021/03/14 09:33:12;;;;;;;6.23;1.33;;;10.80;1.00;;;;;;4992262;28;20811;-85
2021/03/14 09:35:40;;;;;;;2.70;0.60;;;10.60;1.00;;;;;;4990090;28;20510;-84
2021/03/14 09:38:09;;;;;;;2.47;0.80;;;10.20;1.00;;;;;;4993437;28;20486;-86
2021/03/14 09:40:43;;;;;;;3.13;0.50;;;10.10;1.00;;;;;;4976001;28;20423;-86
2021/03/14 09:43:25;;;;;;;4.50;0.60;;;9.90;1.00;;;;;;4990937;28;20474;-86
2021/03/14 09:45:58;;;;;;;6.77;0.73;;;10.00;1.00;;;;;;4998759;28;20886;-86
2021/03/14 09:48:34;;;;;;;3.47;0.73;;;11.00;1.00;;;;;;5012872;28;20465;-84
2021/03/14 09:51:04;;;;;;;1.53;0.40;;;12.60;99.90;;;;;;5012910;28;20542;-86
2021/03/14 09:53:37;;;;;;;5.53;0.70;;;13.70;99.90;;;;;;5000818;28;20970;-86
2021/03/14 09:56:11;;;;;;;3.57;0.50;;;15.00;99.90;;;;;;4999021;28;20513;-82
2021/03/14 09:58:37;;;;;;;7.70;0.77;;;15.60;99.90;;;;;;5012228;28;20418;-85
2021/03/14 10:01:06;;;;;;;6.60;0.90;;;15.80;26.80;;;;;;4993257;28;20410;-84
2021/03/14 10:03:33;;;;;;;1.70;0.40;;;15.70;74.60;;;;;;5008390;28;20434;-86
2021/03/14 10:06:05;;;;;;;3.73;1.20;;;16.60;1.00;;;;;;4997963;28;20467;-85
2021/03/14 10:08:34;;;;;;;4.23;0.50;;;17.30;85.70;;;;;;4992858;28;20444;-86
2021/03/14 10:11:15;;;;;;;7.00;1.27;;;16.80;83.60;;;;;;5002337;28;20477;-85
2021/03/14 10:13:44;;;;;;;1.03;0.30;;;15.70;88.20;;;;;;4994914;28;21002;-86
2021/03/14 10:16:16;;;;;;;4.00;0.80;;;16.00;87.60;;;;;;5012511;28;20933;-85
2021/03/14 10:18:43;;;;;;;0.90;0.30;;;16.40;86.40;;;;;;4994139;28;20881;-83
2021/03/14 10:21:22;;;;;;;3.50;0.50;;;16.90;84.40;;;;;;4984629;28;20429;-86
2021/03/14 10:23:49;;;;;;;3.97;0.60;;;18.10;76.70;;;;;;5000707;28;20480;-86
2021/03/14 10:26:15;;;;;;;5.00;0.60;;;17.80;73.00;;;;;;5008918;28;20475;-84
2021/03/14 10:28:43;;;;;;;4.90;0.67;;;;;;;;;;5005681;28;20494;-86
2021/03/14 10:31:09;;;;;;;9.30;0.50;;;14.50;1.00;;;;;;4994915;28;20473;-86
2021/03/14 10:33:43;;;;;;;2.00;0.60;;;13.00;99.90;;;;;;5003444;28;20473;-86
2021/03/14 10:36:15;;;;;;;1.50;0.23;;;12.00;1.00;;;;;;5002764;28;20518;-86
2021/03/14 10:38:45;;;;;;;1.43;0.30;;;11.10;1.00;;;;;;5003883;28;20444;-86
2021/03/14 10:41:16;;;;;;;3.37;0.70;;;;;;;;;;4993501;28;20927;-86
2021/03/14 10:43:48;;;;;;;3.73;0.50;;;;;;;;;;4997327;28;20439;-87
2021/03/14 10:46:34;;;;;;;2.53;0.47;;;9.50;14.10;;;;;;5006347;28;20920;-87
2021/03/14 10:49:09;;;;;;;5.80;1.27;;;9.60;50.10;;;;;;5004756;28;20421;-87
2021/03/14 10:51:36;;;;;;;5.23;0.97;;;10.20;57.70;;;;;;4989585;28;20473;-88
2021/03/14 10:54:06;;;;;;;4.23;0.40;;;10.70;2.60;;;;;;5007400;28;20438;-85
2021/03/14 10:56:40;;;;;;;3.50;0.90;;;11.30;1.00;;;;;;4990500;28;20965;-88
2021/03/14 10:59:28;;;;;;;7.70;1.40;;;12.30;1.00;;;;;;5000158;28;20454;-86
2021/03/14 11:02:14;;;;;;;2.30;0.60;;;13.90;1.00;;;;;;4993479;28;20623;-84
2021/03/14 11:04:53;;;;;;;6.10;0.83;;;14.50;99.90;;;;;;4986443;28;20440;-86
2021/03/14 11:07:29;;;;;;;2.80;0.53;;;15.30;99.90;;;;;;4985699;28;20575;-86
2021/03/14 11:10:24;;;;;;;5.60;1.57;;;16.80;1.00;;;;;;4986041;28;20458;-86
2021/03/14 11:12:50;;;;;;;7.07;1.30;;;16.60;99.90;;;;;;4969657;28;21087;-86
2021/03/14 11:15:33;;;;;;;0.77;0.37;;;15.80;1.00;;;;;;4966782;28;20521;-83
2021/03/14 11:18:04;;;;;;;1.90;0.30;;;13.70;1.00;;;;;;4969033;28;20484;-84
2021/03/14 11:20:30;;;;;;;5.77;0.50;;;;;;;;;;4984810;28;20481;-84
2021/03/14 11:22:57;;;;;;;5.67;1.07;;;10.30;1.00;;;;;;4970921;28;20496;-85
2021/03/14 11:25:24;;;;;;;4.53;0.83;;;9.60;1.00;;;;;;4986324;28;20818;-85
2021/03/14 11:27:51;;;;;;;3.10;0.50;;;9.30;34.10;;;;;;4985051;28;20442;-84
2021/03/14 11:30:23;;;;;;;5.00;0.63;;;9.80;88.70;;;;;;4991361;28;20591;-87
2021/03/14 11:32:49;;;;;;;4.10;1.03;;;10.30;58.60;;;;;;4973866;28;20489;-87
2021/03/14 11:35:15;;;;;;;4.93;1.60;;;10.60;31.10;;;;;;4973262;28;20450;-84
2021/03/14 11:37:41;;;;;;;4.17;0.70;;;10.70;13.70;;;;;;4972339;28;20446;-87
2021/03/14 11:40:19;;;;;;;4.73;0.70;;;10.60;22.80;;;;;;4993530;28;20442;-85
2021/03/14 11:42:56;;;;;;;11.47;1.33;;;10.40;33.00;;;;;;4978610;28;20373;-86
2021/03/14 11:45:22;;;;;;;7.40;0.83;;;10.30;45.00;;;;;;4973928;28;20490;-84
2021/03/14 11:47:51;;;;;;;3.80;0.83;;;10.40;57.20;;;;;;4975810;28;20538;-85
2021/03/14 11:50:20;;;;;;;7.97;1.27;;;10.80;77.50;;;;;;4991104;28;20786;-84
2021/03/14 11:52:51;;;;;;;8.97;2.27;;;12.50;77.00;;;;;;4991527;28;20434;-86
2021/03/14 11:55:26;;;;;;;7.97;1.37;;;14.60;1.00;;;;;;4996260;28;20819;-85
2021/03/14 11:57:55;;;;;;;6.20;0.87;;;16.50;99.90;;;;;;4997580;28;20431;-82
2021/03/14 12:00:22;;;;;;;9.00;1.13;;;17.00;1.00;;;;;;4994743;28;20432;-85
2021/03/14 12:03:08;;;;;;;7.97;1.73;;;16.00;1.00;;;;;;4980926;28;20445;-86
2021/03/14 12:05:34;;;;;;;4.73;0.83;;;15.00;99.90;;;;;;4979035;28;20431;-86
2021/03/14 12:07:59;;;;;;;5.30;1.27;;;14.10;99.90;;;;;;4991298;28;20613;-89
2021/03/14 12:10:25;;;;;;;4.87;0.60;;;13.80;1.00;;;;;;4978230;28;20216;-84
2021/03/14 12:12:51;;;;;;;7.23;1.40;;;13.60;99.90;;;;;;4995621;28;20178;-86
2021/03/14 12:15:17;;;;;;;4.80;1.13;;;13.00;1.00;;;;;;4995941;28;20178;-87
2021/03/14 12:17:43;;;;;;;5.47;0.83;;;12.50;1.00;;;;;;4993416;28;20440;-85
2021/03/14 12:20:12;;;;;;;3.53;0.40;;;11.80;1.00;;;;;;4995814;28;20179;-85
2021/03/14 12:22:41;;;;;;;3.63;0.70;;;11.30;1.00;;;;;;4978160;28;20431;-89
2021/03/14 12:25:07;;;;;;;2.63;1.33;;;11.00;1.00;;;;;;4978017;28;20446;-88
2021/03/14 12:27:33;;;;;;;5.60;2.73;;;10.50;1.00;;;;;;4994814;28;20424;-85
2021/03/14 12:29:58;;;;;;;4.40;1.20;;;10.30;1.00;;;;;;4977926;28;20469;-89
2021/03/14 12:32:24;;;;;;;5.13;0.67;;;10.20;1.00;;;;;;4978254;28;20179;-88
2021/03/14 12:38:00;;;;;;;5.40;1.30;;;10.50;1.00;;;;;;4995947;28;20192;-86
2021/03/14 12:40:26;;;;;;;6.60;0.97;;;10.40;1.00;;;;;;4977065;28;20515;-85
2021/03/14 12:42:52;;;;;;;6.33;1.27;;;10.30;1.00;;;;;;4994888;28;20164;-84
2021/03/14 12:45:20;;;;;;;8.13;0.93;;;10.00;1.00;;;;;;4995076;28;20176;-86
2021/03/14 12:47:46;;;;;;;7.53;1.13;;;9.80;1.00;;;;;;4994978;28;20517;-87
2021/03/14 12:50:13;;;;;;;6.70;1.20;;;9.70;1.00;;;;;;4995114;28;20987;-84
2021/03/14 12:52:39;;;;;;;3.97;1.07;;;9.80;1.00;;;;;;4995118;28;20419;-84
2021/03/14 12:55:05;;;;;;;6.10;1.77;;;9.60;1.00;;;;;;4993813;28;20411;-90
2021/03/14 12:57:31;;;;;;;11.17;0.93;;;9.50;1.00;;;;;;4994525;28;20449;-84
2021/03/14 12:59:56;;;;;;;10.57;1.83;;;9.50;1.00;;;;;;4994952;28;20420;-88
2021/03/14 13:02:22;;;;;;;2.93;0.47;;;9.90;1.00;;;;;;4994958;28;20172;-83
2021/03/14 13:04:47;;;;;;;3.23;0.43;;;9.90;1.00;;;;;;4994718;28;20683;-84
2021/03/14 13:07:16;;;;;;;6.03;0.80;;;9.90;1.00;;;;;;4994584;28;20172;-85
2021/03/14 13:09:45;;;;;;;9.37;1.40;;;9.90;1.00;;;;;;4976777;28;20173;-84
2021/03/14 13:12:11;;;;;;;5.13;0.70;;;9.90;1.00;;;;;;4976700;28;20482;-83
2021/03/14 13:14:37;;;;;;;4.23;0.57;;;9.90;1.00;;;;;;4993374;28;20486;-82